Time;durP1;ratioP1;P1;durP2;ratioP2;P2;SDS_P1;SDS_P2;PMS_P1;PMS_P2;Temp;Humidity;BMP_temperature;BMP_pressure;BME280_temperature;BME280_humidity;BME280_pressure;Samples;Min_cycle;Max_cycle;Signal;HPM_P1;HPM_P2
2023/01/31 00:00:23;;;;;;;8.15;2.95;;;;;;;;;;5116577;28;20222;-57
2023/01/31 00:02:50;;;;;;;14.88;2.92;;;;;;;;;;5116962;28;20222;-57
2023/01/31 00:05:18;;;;;;;10.93;2.90;;;;;;;;;;5116643;28;20190;-57
2023/01/31 00:07:46;;;;;;;12.25;2.70;;;;;;;;;;5116419;28;20604;-57
2023/01/31 00:10:13;;;;;;;9.55;3.03;;;;;;;;;;5116386;28;20190;-58
2023/01/31 00:12:39;;;;;;;13.13;2.97;;;;;;;;;;5116506;28;20276;-58
2023/01/31 00:15:07;;;;;;;7.25;1.92;;;;;;;;;;5116489;28;20664;-57
2023/01/31 00:17:33;;;;;;;14.10;3.00;;;;;;;;;;5116285;28;20193;-57
2023/01/31 00:20:00;;;;;;;10.20;2.38;;;;;;;;;;5116247;28;20312;-57
2023/01/31 00:22:29;;;;;;;14.88;3.58;;;;;;;;;;5116049;28;20671;-56
2023/01/31 00:24:55;;;;;;;13.00;2.35;;;;;;;;;;5116007;28;20654;-57
2023/01/31 00:27:22;;;;;;;14.48;2.72;;;;;;;;;;5116207;28;20217;-56
2023/01/31 00:29:49;;;;;;;9.55;2.85;;;;;;;;;;5116125;28;20280;-58
2023/01/31 00:32:16;;;;;;;14.00;3.03;;;;;;;;;;5116028;28;20200;-56
2023/01/31 00:34:43;;;;;;;16.50;3.25;;;;;;;;;;5115982;28;20561;-56
2023/01/31 00:37:10;;;;;;;10.18;2.63;;;;;;;;;;5115830;28;20199;-58
2023/01/31 00:39:38;;;;;;;11.18;2.72;;;;;;;;;;5115671;28;20248;-57
2023/01/31 00:42:05;;;;;;;10.68;2.70;;;;;;;;;;5115034;28;20186;-56
2023/01/31 00:44:32;;;;;;;14.70;3.00;;;;;;;;;;5115674;28;20222;-57
2023/01/31 00:46:59;;;;;;;8.98;2.60;;;;;;;;;;5115759;28;20200;-57
2023/01/31 00:49:26;;;;;;;9.30;2.72;;;;;;;;;;5115599;28;20227;-57
2023/01/31 00:51:53;;;;;;;8.85;2.72;;;;;;;;;;5115476;28;20729;-56
2023/01/31 00:54:20;;;;;;;17.05;2.60;;;;;;;;;;5115678;28;20190;-57
2023/01/31 00:56:48;;;;;;;16.75;2.35;;;;;;;;;;5115665;28;20276;-56
2023/01/31 00:59:15;;;;;;;10.93;2.65;;;;;;;;;;5115418;28;20213;-56
2023/01/31 01:01:42;;;;;;;11.82;2.67;;;;;;;;;;5115452;28;20216;-56
2023/01/31 01:04:09;;;;;;;12.25;2.70;;;;;;;;;;5115324;28;20622;-56
2023/01/31 01:06:38;;;;;;;18.38;2.50;;;;;;;;;;5115187;28;20649;-57
2023/01/31 01:09:05;;;;;;;11.43;2.08;;;;;;;;;;5115435;28;20624;-56
2023/01/31 01:11:33;;;;;;;9.65;3.72;;;;;;;;;;5115273;28;20192;-57
2023/01/31 01:14:01;;;;;;;11.82;1.98;;;;;;;;;;5115255;28;20200;-55
2023/01/31 01:16:31;;;;;;;11.57;2.45;;;;;;;;;;5115028;28;20720;-58
2023/01/31 01:18:58;;;;;;;5.30;1.80;;;;;;;;;;5114885;28;20187;-56
2023/01/31 01:21:26;;;;;;;14.13;3.40;;;;;;;;;;5115174;28;20193;-56
2023/01/31 01:23:55;;;;;;;17.48;3.25;;;;;;;;;;5115067;28;20229;-56
2023/01/31 01:26:24;;;;;;;11.07;3.42;;;;;;;;;;5115064;28;20190;-56
2023/01/31 01:28:51;;;;;;;7.95;1.88;;;;;;;;;;5114845;28;20194;-55
2023/01/31 01:31:20;;;;;;;13.52;1.85;;;;;;;;;;5114734;28;20199;-55
2023/01/31 01:33:48;;;;;;;8.52;2.45;;;;;;;;;;5114692;28;20187;-57
2023/01/31 01:36:16;;;;;;;13.98;2.38;;;;;;;;;;5114834;28;20190;-56
2023/01/31 01:38:43;;;;;;;12.40;2.20;;;;;;;;;;5114846;28;20266;-56
2023/01/31 01:41:11;;;;;;;8.18;2.10;;;;;;;;;;5114623;28;20553;-57
2023/01/31 01:43:42;;;;;;;5.43;1.90;;;;;;;;;;5114502;28;20189;-57
2023/01/31 01:46:09;;;;;;;6.32;2.35;;;;;;;;;;5114500;28;20604;-57
2023/01/31 01:48:38;;;;;;;16.58;2.58;;;;;;;;;;5114652;28;20191;-57
2023/01/31 01:51:06;;;;;;;4.50;2.08;;;;;;;;;;5114486;28;20190;-56
2023/01/31 01:53:35;;;;;;;10.05;2.60;;;;;;;;;;5114428;28;20526;-55
2023/01/31 01:56:03;;;;;;;8.05;2.53;;;;;;;;;;5114378;28;20601;-57
2023/01/31 01:58:32;;;;;;;7.40;1.90;;;;;;;;;;5114341;28;20190;-57
2023/01/31 02:00:59;;;;;;;7.68;1.80;;;;;;;;;;5114458;28;20244;-57
2023/01/31 02:03:27;;;;;;;7.95;3.00;;;;;;;;;;5114196;28;20648;-56
2023/01/31 02:05:56;;;;;;;10.18;2.10;;;;;;;;;;5114592;28;20284;-58
2023/01/31 02:08:24;;;;;;;11.00;2.30;;;;;;;;;;5114546;28;20189;-56
2023/01/31 02:10:53;;;;;;;6.95;2.10;;;;;;;;;;5114098;28;20200;-57
2023/01/31 02:13:21;;;;;;;5.72;1.63;;;;;;;;;;5113977;28;20186;-57
2023/01/31 02:15:48;;;;;;;10.02;2.50;;;;;;;;;;5114162;28;20229;-57
2023/01/31 02:18:16;;;;;;;11.10;2.17;;;;;;;;;;5113975;28;20275;-57
2023/01/31 02:21:12;;;;;;;10.13;1.88;;;;;;;;;;5113809;28;20267;-57
2023/01/31 02:23:48;;;;;;;9.77;2.42;;;;;;;;;;5113745;28;20534;-57
2023/01/31 02:26:33;;;;;;;6.60;1.80;;;;;;;;;;5113934;28;20200;-56
2023/01/31 02:29:09;;;;;;;11.75;2.00;;;;;;;;;;5113259;28;20197;-57
2023/01/31 02:31:51;;;;;;;12.02;2.20;;;;;;;;;;5113963;28;20284;-56
2023/01/31 02:34:23;;;;;;;7.00;2.25;;;;;;;;;;5113794;28;20241;-57
2023/01/31 02:36:57;;;;;;;6.30;1.90;;;;;;;;;;5113765;28;20286;-54
2023/01/31 02:39:27;;;;;;;11.30;1.83;;;;;;;;;;5113633;28;20288;-57
2023/01/31 02:41:57;;;;;;;13.98;3.00;;;;;;;;;;5113835;28;20222;-57
2023/01/31 02:47:17;;;;;;;11.95;2.22;;;;;;;;;;5099234;28;20194;-57
2023/01/31 02:49:47;;;;;;;11.13;1.92;;;;;;;;;;5113531;28;20281;-55
2023/01/31 02:52:17;;;;;;;5.03;1.52;;;;;;;;;;5113460;28;20547;-58
2023/01/31 02:57:30;;;;;;;9.68;2.97;;;;;;;;;;5068498;28;20545;-56
2023/01/31 02:59:57;;;;;;;10.35;1.70;;;;;;;;;;5113690;28;20224;-58
2023/01/31 03:02:25;;;;;;;10.18;2.22;;;;;;;;;;5113877;28;20189;-57
2023/01/31 03:04:53;;;;;;;9.15;2.00;;;;;;;;;;5113134;28;20662;-58
2023/01/31 03:07:25;;;;;;;12.13;2.53;;;;;;;;;;5113235;28;20196;-57
2023/01/31 03:09:55;;;;;;;8.73;2.05;;;;;;;;;;5113403;28;20292;-57
2023/01/31 03:12:42;;;;;;;5.45;1.70;;;;;;;;;;5113780;28;20194;-57
2023/01/31 03:17:30;;;;;;;14.35;3.15;;;;;;;;;;5106961;28;20276;-57
2023/01/31 03:18:19;;;;;;;7.03;1.75;;;;;;;;;;5113098;28;20601;-57
2023/01/31 03:20:50;;;;;;;8.07;1.63;;;;;;;;;;5113082;28;20236;-56
2023/01/31 03:23:19;;;;;;;9.98;1.98;;;;;;;;;;5113201;28;20197;-57
2023/01/31 03:25:46;;;;;;;14.05;2.28;;;;;;;;;;5113068;28;20189;-56
2023/01/31 03:28:15;;;;;;;12.93;2.55;;;;;;;;;;5112949;28;20201;-57
2023/01/31 03:30:43;;;;;;;11.88;2.40;;;;;;;;;;5113148;28;20607;-56
2023/01/31 03:33:16;;;;;;;6.97;1.92;;;;;;;;;;5113144;28;20324;-58
2023/01/31 03:35:44;;;;;;;5.03;2.17;;;;;;;;;;5113141;28;20190;-57
2023/01/31 03:38:17;;;;;;;6.25;1.95;;;;;;;;;;5113019;28;20191;-57
2023/01/31 03:40:48;;;;;;;8.52;1.90;;;;;;;;;;5112843;28;20246;-54
2023/01/31 03:43:19;;;;;;;6.95;2.33;;;;;;;;;;5113047;28;20193;-56
2023/01/31 03:45:48;;;;;;;9.00;1.98;;;;;;;;;;5113036;28;20226;-55
2023/01/31 03:48:17;;;;;;;7.35;2.00;;;;;;;;;;5112789;28;20698;-55
2023/01/31 03:50:48;;;;;;;4.53;1.70;;;;;;;;;;5112828;28;20600;-56
2023/01/31 03:53:19;;;;;;;5.25;2.05;;;;;;;;;;5112743;28;20548;-57
2023/01/31 03:55:49;;;;;;;6.65;2.08;;;;;;;;;;5112979;28;20195;-57
2023/01/31 03:58:19;;;;;;;4.32;1.50;;;;;;;;;;5112684;28;20729;-56
2023/01/31 04:00:47;;;;;;;4.78;1.50;;;;;;;;;;5112675;28;20211;-57
2023/01/31 04:03:16;;;;;;;8.13;2.10;;;;;;;;;;5112669;28;20186;-57
2023/01/31 04:05:44;;;;;;;8.02;1.80;;;;;;;;;;5112755;28;20195;-55
2023/01/31 04:08:11;;;;;;;5.68;1.90;;;;;;;;;;5112856;28;20671;-56
2023/01/31 04:10:39;;;;;;;10.50;2.13;;;;;;;;;;5112844;28;20619;-57
2023/01/31 04:13:06;;;;;;;8.38;1.80;;;;;;;;;;5112779;28;20554;-56
2023/01/31 04:15:33;;;;;;;10.27;2.53;;;;;;;;;;5112688;28;20732;-57
2023/01/31 04:18:00;;;;;;;6.00;1.90;;;;;;;;;;5115021;28;20193;-57
2023/01/31 04:20:27;;;;;;;7.70;2.33;;;;;;;;;;5116502;28;20785;-57
2023/01/31 04:22:54;;;;;;;11.75;1.63;;;;;;;;;;5116353;28;20225;-58
2023/01/31 04:25:21;;;;;;;16.05;3.78;;;;;;;;;;5116475;28;20196;-57
2023/01/31 04:27:50;;;;;;;14.77;5.18;;;;;;;;;;5115993;28;20185;-57
2023/01/31 04:30:17;;;;;;;12.07;4.93;;;;;;;;;;5115997;28;20663;-57
2023/01/31 04:32:44;;;;;;;7.28;2.75;;;;;;;;;;5116044;28;20236;-57
2023/01/31 04:35:11;;;;;;;7.32;3.00;;;;;;;;;;5116106;28;20190;-57
2023/01/31 04:37:38;;;;;;;14.60;2.00;;;;;;;;;;5116157;28;20193;-57
2023/01/31 04:40:05;;;;;;;5.53;1.85;;;;;;;;;;5115832;28;20212;-56
2023/01/31 04:42:32;;;;;;;12.90;2.60;;;;;;;;;;5115813;28;20278;-56
2023/01/31 04:45:01;;;;;;;7.82;2.15;;;;;;;;;;5115466;28;20285;-57
2023/01/31 04:47:28;;;;;;;12.77;2.42;;;;;;;;;;5115634;28;20190;-57
2023/01/31 04:49:55;;;;;;;8.27;2.22;;;;;;;;;;5115704;28;20191;-57
2023/01/31 04:52:23;;;;;;;10.35;2.50;;;;;;;;;;5115689;28;20602;-56
2023/01/31 04:54:50;;;;;;;8.75;2.05;;;;;;;;;;5115540;28;20194;-56
2023/01/31 04:57:17;;;;;;;4.95;2.25;;;;;;;;;;5115537;28;20200;-56
2023/01/31 04:59:44;;;;;;;5.38;2.20;;;;;;;;;;5115407;28;20200;-57
2023/01/31 05:02:13;;;;;;;4.40;1.83;;;;;;;;;;5115153;28;20684;-57
2023/01/31 05:04:40;;;;;;;7.15;2.85;;;;;;;;;;5115467;28;20285;-56
2023/01/31 05:07:07;;;;;;;13.25;2.55;;;;;;;;;;5115371;28;20276;-57
2023/01/31 05:09:34;;;;;;;12.07;2.40;;;;;;;;;;5115278;28;20191;-58
2023/01/31 05:12:01;;;;;;;7.85;2.22;;;;;;;;;;5115201;28;20197;-56
2023/01/31 05:14:28;;;;;;;10.48;2.70;;;;;;;;;;5114997;28;20190;-57
2023/01/31 05:16:55;;;;;;;8.38;2.35;;;;;;;;;;5115293;28;20190;-57
2023/01/31 05:19:23;;;;;;;10.15;2.00;;;;;;;;;;5115410;28;20200;-57
2023/01/31 05:21:57;;;;;;;7.72;1.77;;;;;;;;;;5114991;28;20216;-57
2023/01/31 05:24:25;;;;;;;15.00;3.47;;;;;;;;;;5114984;28;20201;-57
2023/01/31 05:26:57;;;;;;;10.05;2.05;;;;;;;;;;5114798;28;20198;-56
2023/01/31 05:29:24;;;;;;;12.38;1.85;;;;;;;;;;5114742;28;20194;-58
2023/01/31 05:31:51;;;;;;;13.07;2.33;;;;;;;;;;5114923;28;20193;-58
2023/01/31 05:34:18;;;;;;;10.90;2.50;;;;;;;;;;5115090;28;20185;-57
2023/01/31 05:36:46;;;;;;;12.27;2.47;;;;;;;;;;5114693;28;20207;-58
2023/01/31 05:39:13;;;;;;;11.70;2.22;;;;;;;;;;5114637;28;20190;-58
2023/01/31 05:41:40;;;;;;;7.95;2.10;;;;;;;;;;5114463;28;20214;-57
2023/01/31 05:44:07;;;;;;;10.57;3.05;;;;;;;;;;5114318;28;20189;-55
2023/01/31 05:46:34;;;;;;;8.18;1.75;;;;;;;;;;5114525;28;20277;-58
2023/01/31 05:49:01;;;;;;;10.25;2.20;;;;;;;;;;5114383;28;20193;-57
2023/01/31 05:51:28;;;;;;;7.70;2.95;;;;;;;;;;5114288;28;20648;-58
2023/01/31 05:53:56;;;;;;;8.50;2.22;;;;;;;;;;5114321;28;20190;-57
2023/01/31 05:56:23;;;;;;;6.68;2.00;;;;;;;;;;5114530;28;20195;-56
2023/01/31 05:58:50;;;;;;;13.73;2.60;;;;;;;;;;5114457;28;20212;-56
2023/01/31 06:01:17;;;;;;;12.80;2.28;;;;;;;;;;5114223;28;20252;-55
2023/01/31 06:03:44;;;;;;;6.82;2.08;;;;;;;;;;5114251;28;20189;-55
2023/01/31 06:06:11;;;;;;;4.63;1.95;;;;;;;;;;5114091;28;20245;-58
2023/01/31 06:08:38;;;;;;;6.45;1.95;;;;;;;;;;5113910;28;20289;-58
2023/01/31 06:11:06;;;;;;;16.77;2.60;;;;;;;;;;5114187;28;20281;-56
2023/01/31 06:13:33;;;;;;;10.00;2.67;;;;;;;;;;5114077;28;20206;-56
2023/01/31 06:16:00;;;;;;;11.80;2.75;;;;;;;;;;5114139;28;20277;-56
2023/01/31 06:18:27;;;;;;;6.93;1.88;;;;;;;;;;5113900;28;20281;-57
2023/01/31 06:20:54;;;;;;;7.72;2.10;;;;;;;;;;5113629;28;20220;-56
2023/01/31 06:23:21;;;;;;;9.60;2.38;;;;;;;;;;5113670;28;20192;-54
2023/01/31 06:25:49;;;;;;;9.90;2.25;;;;;;;;;;5113948;28;20244;-57
2023/01/31 06:28:17;;;;;;;16.42;2.22;;;;;;;;;;5113863;28;20186;-57
2023/01/31 06:30:45;;;;;;;17.52;2.92;;;;;;;;;;5113604;28;20557;-58
2023/01/31 06:33:12;;;;;;;9.02;2.03;;;;;;;;;;5113658;28;20194;-57
2023/01/31 06:35:39;;;;;;;16.17;2.80;;;;;;;;;;5113524;28;20197;-57
2023/01/31 06:38:06;;;;;;;13.00;2.75;;;;;;;;;;5113775;28;20186;-57
2023/01/31 06:40:34;;;;;;;8.05;2.35;;;;;;;;;;5113296;28;20206;-57
2023/01/31 06:43:01;;;;;;;11.52;2.97;;;;;;;;;;5113512;28;20193;-56
2023/01/31 06:45:30;;;;;;;18.27;3.30;;;;;;;;;;5113368;28;20314;-57
2023/01/31 06:47:56;;;;;;;11.18;2.78;;;;;;;;;;5113370;28;20190;-56
2023/01/31 06:50:23;;;;;;;7.82;3.35;;;;;;;;;;5113222;28;20194;-57
2023/01/31 06:52:50;;;;;;;11.63;3.05;;;;;;;;;;5113433;28;20301;-57
2023/01/31 06:55:17;;;;;;;7.13;1.88;;;;;;;;;;5113182;28;20657;-54
2023/01/31 06:57:47;;;;;;;9.23;2.63;;;;;;;;;;5113326;28;20235;-56
2023/01/31 07:00:15;;;;;;;9.73;2.30;;;;;;;;;;5113282;28;20222;-57
2023/01/31 07:02:43;;;;;;;12.77;2.83;;;;;;;;;;5113074;28;20243;-57
2023/01/31 07:05:10;;;;;;;16.85;3.15;;;;;;;;;;5113630;28;20189;-57
2023/01/31 07:07:37;;;;;;;7.97;3.72;;;;;;;;;;5113358;28;20268;-58
2023/01/31 07:10:04;;;;;;;9.52;2.15;;;;;;;;;;5113270;28;20189;-56
2023/01/31 07:12:31;;;;;;;9.30;2.63;;;;;;;;;;5113164;28;20190;-58
2023/01/31 07:14:58;;;;;;;13.02;3.50;;;;;;;;;;5113219;28;20645;-51
2023/01/31 07:17:25;;;;;;;9.93;2.05;;;;;;;;;;5113023;28;20190;-58
2023/01/31 07:19:53;;;;;;;11.52;3.28;;;;;;;;;;5113063;28;20276;-55
2023/01/31 07:22:20;;;;;;;10.82;2.42;;;;;;;;;;5113081;28;20692;-56
2023/01/31 07:24:48;;;;;;;14.65;2.75;;;;;;;;;;5113013;28;20195;-56
2023/01/31 07:27:15;;;;;;;25.20;9.73;;;;;;;;;;5112904;28;20197;-58
2023/01/31 07:29:42;;;;;;;12.40;2.42;;;;;;;;;;5112885;28;20187;-56
2023/01/31 07:32:09;;;;;;;5.15;2.28;;;;;;;;;;5113058;28;20280;-58
2023/01/31 07:34:36;;;;;;;13.02;2.35;;;;;;;;;;5113496;28;20191;-57
2023/01/31 07:37:04;;;;;;;4.95;1.80;;;;;;;;;;5113025;28;20286;-57
2023/01/31 07:39:31;;;;;;;6.60;2.38;;;;;;;;;;5112838;28;20613;-58
2023/01/31 07:41:58;;;;;;;6.90;1.60;;;;;;;;;;5112688;28;20210;-56
2023/01/31 07:44:25;;;;;;;8.23;2.30;;;;;;;;;;5112513;28;20577;-57
2023/01/31 07:46:53;;;;;;;12.65;2.50;;;;;;;;;;5112997;28;20198;-57
2023/01/31 07:49:20;;;;;;;11.48;2.35;;;;;;;;;;5112946;28;20186;-55
2023/01/31 07:51:47;;;;;;;7.82;2.05;;;;;;;;;;5115170;28;20200;-57
2023/01/31 07:54:15;;;;;;;5.45;2.03;;;;;;;;;;5116746;28;20633;-53
2023/01/31 07:56:42;;;;;;;12.65;2.85;;;;;;;;;;5116616;28;20190;-57
2023/01/31 07:59:09;;;;;;;13.10;2.53;;;;;;;;;;5116501;28;20191;-57
2023/01/31 08:04:20;;;;;;;11.98;2.88;;;;;;;;;;5116399;28;20313;-57
2023/01/31 08:06:48;;;;;;;10.18;2.45;;;;;;;;;;5116525;28;20286;-58
2023/01/31 08:09:16;;;;;;;6.82;2.50;;;;;;;;;;5116228;28;20200;-55
2023/01/31 08:11:43;;;;;;;9.40;2.58;;;;;;;;;;5116270;28;20532;-57
2023/01/31 08:14:10;;;;;;;10.70;2.38;;;;;;;;;;5116366;28;20193;-52
2023/01/31 08:16:37;;;;;;;11.40;3.13;;;;;;;;;;5115815;28;20809;-54
2023/01/31 08:19:04;;;;;;;7.32;2.45;;;;;;;;;;5115109;27;20218;-63
2023/01/31 08:21:31;;;;;;;11.30;3.30;;;;;;;;;;5115902;28;20560;-61
2023/01/31 08:23:58;;;;;;;8.82;2.67;;;;;;;;;;5115798;28;20455;-61
2023/01/31 08:26:26;;;;;;;5.05;2.50;;;;;;;;;;5115819;27;20281;-62
2023/01/31 08:28:54;;;;;;;7.97;2.30;;;;;;;;;;5116191;28;20221;-61
2023/01/31 08:31:22;;;;;;;10.82;3.50;;;;;;;;;;5134640;27;20190;-60
2023/01/31 08:33:50;;;;;;;13.30;2.72;;;;;;;;;;5136564;27;20548;-62
2023/01/31 08:36:18;;;;;;;6.80;2.60;;;;;;;;;;5136346;27;20187;-62
2023/01/31 08:38:45;;;;;;;9.70;2.20;;;;;;;;;;5136245;27;20194;-62
2023/01/31 08:41:12;;;;;;;14.23;2.92;;;;;;;;;;5136249;27;20901;-63
2023/01/31 08:43:40;;;;;;;8.33;2.30;;;;;;;;;;5136336;27;20186;-58
2023/01/31 08:46:07;;;;;;;7.83;2.40;;;;;;;;;;5135781;27;20476;-60
2023/01/31 08:48:34;;;;;;;9.38;2.53;;;;;;;;;;5136102;27;20478;-51
2023/01/31 08:51:02;;;;;;;6.93;2.67;;;;;;;;;;5126783;27;20187;-62
2023/01/31 08:53:29;;;;;;;8.23;2.07;;;;;;;;;;5115595;28;20258;-60
2023/01/31 08:55:59;;;;;;;4.57;2.80;;;;;;;;;;5115027;28;20480;-55
2023/01/31 08:58:26;;;;;;;4.80;2.45;;;;;;;;;;5115584;28;20190;-61
2023/01/31 09:00:54;;;;;;;6.13;2.00;;;;;;;;;;5115195;28;20190;-61
2023/01/31 09:03:21;;;;;;;11.32;2.85;;;;;;;;;;5114376;28;20222;-63
2023/01/31 09:05:48;;;;;;;8.48;2.17;;;;;;;;;;5119574;27;20646;-61
2023/01/31 09:08:15;;;;;;;3.72;2.40;;;;;;;;;;5156494;27;20189;-64
2023/01/31 09:10:42;;;;;;;7.87;1.87;;;;;;;;;;5156335;27;20273;-60
2023/01/31 09:13:08;;;;;;;8.20;2.03;;;;;;;;;;5156529;27;20448;-62
2023/01/31 09:15:35;;;;;;;5.93;2.05;;;;;;;;;;5156456;27;20442;-59
2023/01/31 09:18:04;;;;;;;12.27;3.53;;;;;;;;;;5155283;27;20276;-62
2023/01/31 09:20:31;;;;;;;8.73;2.53;;;;;;;;;;5125038;27;20193;-58
2023/01/31 09:22:58;;;;;;;15.20;3.20;;;;;;;;;;5120103;27;20478;-58
2023/01/31 09:25:25;;;;;;;10.63;4.25;;;;;;;;;;5120776;27;20542;-58
2023/01/31 09:27:54;;;;;;;8.77;3.55;;;;;;;;;;5114806;28;20538;-59
2023/01/31 09:30:21;;;;;;;14.25;3.20;;;;;;;;;;5133971;27;20185;-60
2023/01/31 09:32:48;;;;;;;8.25;3.15;;;;;;;;;;5134744;27;20194;-59
2023/01/31 09:35:18;;;;;;;8.90;3.30;;;;;;;;;;5135279;27;20497;-58
2023/01/31 09:37:44;;;;;;;8.43;3.92;;;;;;;;;;5135283;27;20209;-58
2023/01/31 09:40:16;;;;;;;8.52;3.22;;;;;;;;;;5135271;27;20194;-58
2023/01/31 09:42:44;;;;;;;13.68;4.20;;;;;;;;;;5135054;27;20241;-59
2023/01/31 09:45:13;;;;;;;7.55;3.38;;;;;;;;;;5133399;27;20236;-62
2023/01/31 09:47:42;;;;;;;9.32;2.97;;;;;;;;;;5114399;28;20191;-60
2023/01/31 09:50:17;;;;;;;14.43;3.00;;;;;;;;;;5114047;28;20799;-61
2023/01/31 09:52:45;;;;;;;13.40;4.00;;;;;;;;;;5113648;28;20462;-59
2023/01/31 09:55:16;;;;;;;10.25;3.90;;;;;;;;;;5114321;28;20282;-61
2023/01/31 09:57:47;;;;;;;11.47;3.37;;;;;;;;;;5114091;28;20259;-60
2023/01/31 10:00:18;;;;;;;10.85;3.28;;;;;;;;;;5114287;28;20935;-58
2023/01/31 10:02:59;;;;;;;13.90;4.77;;;;;;;;;;5114222;28;20223;-59
2023/01/31 10:05:31;;;;;;;19.80;3.80;;;;;;;;;;5114194;28;20449;-58
2023/01/31 10:08:04;;;;;;;11.87;4.00;;;;;;;;;;5114059;28;20506;-57
2023/01/31 10:10:35;;;;;;;5.10;2.70;;;;;;;;;;5114225;28;20451;-56
2023/01/31 10:13:05;;;;;;;15.65;3.15;;;;;;;;;;5114177;28;20202;-58
2023/01/31 10:15:35;;;;;;;12.23;3.60;;;;;;;;;;5113035;28;20220;-57
2023/01/31 10:18:04;;;;;;;8.33;3.00;;;;;;;;;;5113659;28;20449;-59
2023/01/31 10:20:35;;;;;;;9.30;2.70;;;;;;;;;;5113779;28;20556;-61
2023/01/31 10:23:05;;;;;;;14.47;3.60;;;;;;;;;;5113696;28;20484;-60
2023/01/31 10:25:34;;;;;;;8.60;2.83;;;;;;;;;;5114076;28;20452;-60
2023/01/31 10:28:02;;;;;;;6.70;3.20;;;;;;;;;;5113757;28;20450;-64
2023/01/31 10:30:32;;;;;;;13.50;4.20;;;;;;;;;;5113720;28;20460;-60
2023/01/31 10:33:01;;;;;;;12.47;2.50;;;;;;;;;;5113574;28;20541;-60
2023/01/31 10:35:30;;;;;;;6.97;3.10;;;;;;;;;;5113369;28;20958;-60
2023/01/31 10:38:00;;;;;;;10.90;2.43;;;;;;;;;;5113892;28;20463;-59
2023/01/31 10:40:31;;;;;;;7.90;2.30;;;;;;;;;;5113602;28;20529;-59
2023/01/31 10:43:00;;;;;;;7.73;2.50;;;;;;;;;;5113582;28;20473;-59
2023/01/31 10:45:29;;;;;;;4.87;1.97;;;;;;;;;;5113163;28;20489;-59
2023/01/31 10:48:00;;;;;;;8.60;2.30;;;;;;;;;;5113262;28;20535;-59
2023/01/31 10:50:29;;;;;;;14.50;2.50;;;;;;;;;;5113536;28;20452;-60
2023/01/31 10:53:14;;;;;;;6.33;2.17;;;;;;;;;;5113310;28;20453;-59
2023/01/31 10:55:59;;;;;;;15.37;2.70;;;;;;;;;;5113586;28;20448;-62
2023/01/31 10:58:27;;;;;;;18.57;3.37;;;;;;;;;;5113485;28;20492;-62
2023/01/31 11:00:53;;;;;;;12.30;3.60;;;;;;;;;;5117855;27;20444;-62
2023/01/31 11:03:21;;;;;;;8.43;2.93;;;;;;;;;;5133691;27;20483;-56
2023/01/31 11:05:49;;;;;;;9.50;3.43;;;;;;;;;;5133501;27;20512;-59
2023/01/31 11:08:28;;;;;;;10.87;3.27;;;;;;;;;;5132977;28;20530;-61
2023/01/31 11:10:57;;;;;;;12.80;3.45;;;;;;;;;;5133069;28;20443;-59
2023/01/31 11:13:24;;;;;;;16.33;3.80;;;;;;;;;;5133900;28;20628;-59
2023/01/31 11:15:53;;;;;;;12.93;3.10;;;;;;;;;;5132706;28;20545;-60
2023/01/31 11:18:26;;;;;;;11.07;3.28;;;;;;;;;;5132985;28;20479;-61
2023/01/31 11:20:53;;;;;;;10.20;3.40;;;;;;;;;;5132779;28;20473;-61
2023/01/31 11:23:23;;;;;;;12.00;3.20;;;;;;;;;;5132157;28;20463;-59
2023/01/31 11:25:51;;;;;;;10.27;2.90;;;;;;;;;;5134047;27;20536;-59
2023/01/31 11:28:22;;;;;;;10.23;3.17;;;;;;;;;;5137869;27;20456;-60
2023/01/31 11:30:50;;;;;;;6.83;2.80;;;;;;;;;;5137679;27;20484;-61
2023/01/31 11:33:37;;;;;;;10.50;3.20;;;;;;;;;;5137547;27;20449;-61
2023/01/31 11:36:08;;;;;;;8.03;3.10;;;;;;;;;;5137870;27;20447;-61
2023/01/31 11:38:35;;;;;;;13.23;3.50;;;;;;;;;;5137263;27;20483;-59
2023/01/31 11:41:02;;;;;;;10.67;2.77;;;;;;;;;;5135342;27;20447;-59
2023/01/31 11:43:31;;;;;;;7.27;2.73;;;;;;;;;;5135524;27;20511;-60
2023/01/31 11:45:59;;;;;;;10.63;3.07;;;;;;;;;;5136941;27;20476;-60
2023/01/31 11:48:28;;;;;;;12.27;3.20;;;;;;;;;;5137435;27;20448;-63
2023/01/31 11:50:56;;;;;;;7.73;2.50;;;;;;;;;;5137495;27;20472;-62
2023/01/31 11:53:25;;;;;;;12.20;3.77;;;;;;;;;;5136992;27;20931;-62
2023/01/31 11:55:54;;;;;;;7.77;2.83;;;;;;;;;;5137138;27;20811;-59
2023/01/31 11:58:22;;;;;;;15.80;2.80;;;;;;;;;;5137091;27;20456;-61
2023/01/31 12:00:54;;;;;;;12.03;2.83;;;;;;;;;;5136295;27;20811;-62
2023/01/31 12:03:21;;;;;;;12.57;2.97;;;;;;;;;;5136663;27;20480;-59
2023/01/31 12:05:50;;;;;;;6.57;2.43;;;;;;;;;;5136460;27;20481;-60
2023/01/31 12:08:28;;;;;;;17.33;3.27;;;;;;;;;;5136735;27;20452;-59
2023/01/31 12:10:56;;;;;;;7.30;2.60;;;;;;;;;;5136786;27;20455;-58
2023/01/31 12:13:23;;;;;;;12.73;3.53;;;;;;;;;;5136692;27;20508;-60
2023/01/31 12:15:54;;;;;;;13.30;2.90;;;;;;;;;;5136986;27;20868;-59
2023/01/31 12:18:26;;;;;;;8.27;3.10;;;;;;;;;;5136637;27;20942;-61
2023/01/31 12:20:56;;;;;;;12.90;3.90;;;;;;;;;;5136039;27;20449;-52
2023/01/31 12:23:27;;;;;;;9.43;3.50;;;;;;;;;;5136495;27;20215;-60
2023/01/31 12:26:02;;;;;;;7.93;3.13;;;;;;;;;;5135565;27;20536;-55
2023/01/31 12:28:33;;;;;;;5.03;2.67;;;;;;;;;;5136191;27;20802;-59
2023/01/31 12:31:06;;;;;;;8.77;2.90;;;;;;;;;;5134706;27;20447;-59
2023/01/31 12:33:39;;;;;;;9.90;3.03;;;;;;;;;;5130635;27;20449;-58
2023/01/31 12:36:12;;;;;;;13.17;3.00;;;;;;;;;;5115815;28;20940;-57
2023/01/31 12:38:46;;;;;;;5.97;3.10;;;;;;;;;;5114395;28;20450;-61
2023/01/31 12:41:20;;;;;;;11.23;3.20;;;;;;;;;;5115024;28;20451;-59
2023/01/31 12:43:56;;;;;;;5.77;3.77;;;;;;;;;;5115601;28;20484;-60
2023/01/31 12:46:26;;;;;;;14.20;4.33;;;;;;;;;;5115593;28;20475;-60
2023/01/31 12:49:02;;;;;;;8.90;3.40;;;;;;;;;;5115871;28;20449;-60
2023/01/31 12:51:33;;;;;;;17.97;4.73;;;;;;;;;;5115473;28;20913;-60
2023/01/31 12:54:08;;;;;;;9.40;3.53;;;;;;;;;;5115081;28;20449;-60
2023/01/31 12:56:42;;;;;;;11.57;3.80;;;;;;;;;;5115279;28;20858;-60
2023/01/31 12:59:17;;;;;;;16.60;3.70;;;;;;;;;;5115256;28;20454;-60
2023/01/31 13:01:48;;;;;;;14.77;3.90;;;;;;;;;;5113845;28;20531;-61
2023/01/31 13:04:27;;;;;;;8.10;3.53;;;;;;;;;;5113900;28;20488;-64
2023/01/31 13:06:55;;;;;;;11.27;3.20;;;;;;;;;;5115442;28;20191;-60
2023/01/31 13:09:23;;;;;;;11.33;4.10;;;;;;;;;;5115195;28;20453;-61
2023/01/31 13:11:53;;;;;;;5.00;3.50;;;;;;;;;;5115127;28;20807;-62
2023/01/31 13:14:21;;;;;;;7.20;2.88;;;;;;;;;;5115333;28;20809;-62
2023/01/31 13:16:51;;;;;;;12.40;4.17;;;;;;;;;;5115015;28;20189;-54
2023/01/31 13:19:22;;;;;;;6.37;3.03;;;;;;;;;;5111900;28;20539;-59
2023/01/31 13:21:52;;;;;;;6.10;3.10;;;;;;;;;;5113987;28;20453;-62
2023/01/31 13:24:21;;;;;;;10.30;3.80;;;;;;;;;;5114058;28;20218;-59
2023/01/31 13:26:49;;;;;;;10.43;3.97;;;;;;;;;;5113723;28;20082;-59
2023/01/31 13:29:19;;;;;;;7.00;4.30;;;;;;;;;;5113840;28;20455;-62
2023/01/31 13:31:47;;;;;;;12.27;4.43;;;;;;;;;;5113675;28;20502;-60
2023/01/31 13:34:17;;;;;;;14.73;3.93;;;;;;;;;;5124933;27;20450;-60
2023/01/31 13:36:46;;;;;;;7.10;3.77;;;;;;;;;;5133676;27;20806;-60
2023/01/31 13:39:18;;;;;;;6.07;3.13;;;;;;;;;;5133890;27;20452;-60
2023/01/31 13:41:45;;;;;;;15.77;3.80;;;;;;;;;;5135069;27;20458;-60
2023/01/31 13:44:13;;;;;;;9.10;3.93;;;;;;;;;;5133953;27;20502;-60
2023/01/31 13:46:44;;;;;;;12.00;3.57;;;;;;;;;;5133984;27;20445;-60
2023/01/31 13:49:15;;;;;;;9.33;4.03;;;;;;;;;;5133215;27;20440;-60
2023/01/31 13:51:44;;;;;;;4.93;3.33;;;;;;;;;;5132540;27;20456;-60
2023/01/31 13:54:17;;;;;;;9.82;3.78;;;;;;;;;;5134096;27;20454;-60
2023/01/31 13:56:48;;;;;;;6.78;3.60;;;;;;;;;;5134859;27;20298;-60
2023/01/31 13:59:20;;;;;;;7.30;3.80;;;;;;;;;;5133533;27;20680;-60
2023/01/31 14:01:48;;;;;;;8.10;3.40;;;;;;;;;;5122743;27;20441;-60
2023/01/31 14:04:32;;;;;;;7.10;3.38;;;;;;;;;;5124154;27;20223;-60
2023/01/31 14:07:20;;;;;;;5.23;3.10;;;;;;;;;;5122285;27;20271;-60
2023/01/31 14:10:01;;;;;;;10.25;3.70;;;;;;;;;;5113378;28;20469;-60
2023/01/31 14:12:34;;;;;;;6.20;3.20;;;;;;;;;;5113775;28;20592;-60
2023/01/31 14:15:01;;;;;;;8.80;3.30;;;;;;;;;;5114060;28;20603;-60
2023/01/31 14:17:46;;;;;;;6.32;3.60;;;;;;;;;;5113971;28;20550;-60
2023/01/31 14:20:25;;;;;;;7.77;3.33;;;;;;;;;;5113664;28;20193;-60
2023/01/31 14:23:07;;;;;;;6.80;3.20;;;;;;;;;;5114042;28;20453;-60
2023/01/31 14:25:41;;;;;;;4.40;2.97;;;;;;;;;;5111939;28;20571;-60
2023/01/31 14:28:11;;;;;;;4.15;2.83;;;;;;;;;;5114893;28;20818;-60
2023/01/31 14:30:42;;;;;;;8.90;3.10;;;;;;;;;;5113624;28;20195;-60
2023/01/31 14:33:17;;;;;;;6.60;3.30;;;;;;;;;;5113502;28;20185;-60
2023/01/31 14:35:51;;;;;;;5.17;3.10;;;;;;;;;;5113396;28;20944;-60
2023/01/31 14:38:24;;;;;;;4.90;3.50;;;;;;;;;;5113602;28;20452;-60
2023/01/31 14:40:58;;;;;;;7.25;4.00;;;;;;;;;;5113495;28;20498;-60
2023/01/31 14:43:32;;;;;;;5.13;4.10;;;;;;;;;;5113555;28;20687;-60
2023/01/31 14:46:04;;;;;;;5.67;3.50;;;;;;;;;;5113467;28;20476;-60
2023/01/31 14:48:38;;;;;;;3.67;2.90;;;;;;;;;;5113585;28;20452;-60
2023/01/31 14:51:08;;;;;;;6.28;3.80;;;;;;;;;;5113382;28;20192;-60
2023/01/31 14:53:54;;;;;;;6.63;3.50;;;;;;;;;;5113338;28;20278;-60
2023/01/31 14:56:25;;;;;;;3.72;3.20;;;;;;;;;;5113363;28;20445;-60